»·PEaware :: N1940F KBIL-KBZN

N1940F :: KBIL-KBZN

FLIGHT INFORMATION

Flight Status: Arrived
Operator: Privately registered:
United States
More flights under this callsign
Pilot: Pratham R. (19019)
Aircraft: SOCATA TBM-900
(TBM9)
More flights by this aircraft type
Origin: KBIL Billings Logan Intl
United States
Destination: KBZN Gallatin
United States
More flights between these airports :: More routes between these airports
Route: +BIL V86 BZN
File this flight plan on PilotEdge
Remarks: RMK / SIMBRIEF
Altitude:
(Current/Filed)
10,000ft
Speed:
(Current/Filed)
267kts
Departed: 15-Mar-20 01:25 PM
Arrived: 15-Mar-20 02:11 PM
Distance/Time
Traveled:
109nm/0:46
Distance/Time
To Go:
Arrived

Flight Plot

Page will automatically refresh every two minutes.

Flight plan parsing failed; only flown route is shown


Map Options




Map Legend


Flown Route
Filed Route
Departure Airport
Arrival Airport
Navaid (VOR, NDB)
Fix

Horizontal Profiles

Position Reports

Time Latitude Longitude Heading Altitude Ground
Speed
15-Mar-20 13:00 45.803486 -108.547089 270 3654ft 0kts
15-Mar-20 13:01 45.803486 -108.547089 270 3654ft 0kts
15-Mar-20 13:02 45.803486 -108.547089 270 3654ft 0kts
15-Mar-20 13:03 45.803486 -108.547089 270 3654ft 0kts
15-Mar-20 13:04 45.803486 -108.547089 270 3654ft 0kts
15-Mar-20 13:05 45.803486 -108.547089 270 3654ft 0kts
15-Mar-20 13:06 45.803485 -108.547089 270 3654ft 0kts
15-Mar-20 13:07 45.803486 -108.547089 270 3654ft 0kts
15-Mar-20 13:08 45.803486 -108.547089 270 3654ft 0kts
15-Mar-20 13:09 45.803486 -108.547089 270 3654ft 0kts
15-Mar-20 13:10 45.803486 -108.547089 270 3654ft 0kts
15-Mar-20 13:11 45.803486 -108.547089 270 3654ft 0kts
15-Mar-20 13:12 45.803486 -108.547089 270 3654ft 0kts
15-Mar-20 13:13 45.803486 -108.547089 270 3654ft 0kts
15-Mar-20 13:14 45.803486 -108.547089 270 3654ft 0kts
15-Mar-20 13:15 45.803486 -108.547102 270 3654ft 1kts
15-Mar-20 13:16 45.805855 -108.546927 76 3654ft 7kts
15-Mar-20 13:17 45.805882 -108.541791 88 3654ft 13kts
15-Mar-20 13:18 45.806013 -108.538081 76 3654ft 15kts
15-Mar-20 13:19 45.804750 -108.531462 89 3654ft 15kts
15-Mar-20 13:20 45.803302 -108.525291 111 3654ft 18kts
15-Mar-20 13:21 45.801318 -108.518507 109 3654ft 14kts
15-Mar-20 13:22 45.801254 -108.517283 52 3654ft 0kts
15-Mar-20 13:23 45.801630 -108.516931 22 3654ft 7kts
15-Mar-20 13:24 45.802727 -108.518972 291 3654ft 54kts
15-Mar-20 13:25 45.814428 -108.562252 292 5078ft 132kts
15-Mar-20 13:26 45.828921 -108.615435 292 7070ft 152kts
15-Mar-20 13:27 45.846662 -108.677047 292 8435ft 178kts
15-Mar-20 13:28 45.866357 -108.744749 273 9675ft 183kts
15-Mar-20 13:29 45.869914 -108.823497 271 10062ft 213kts
15-Mar-20 13:30 45.873683 -108.912470 271 10049ft 226kts
15-Mar-20 13:31 45.877486 -109.004178 271 10047ft 229kts
15-Mar-20 13:32 45.881322 -109.096378 271 10046ft 229kts
15-Mar-20 13:33 45.884151 -109.188374 257 10034ft 227kts
15-Mar-20 13:34 45.872509 -109.278160 258 10045ft 227kts
15-Mar-20 13:35 45.860866 -109.368096 258 10045ft 227kts
15-Mar-20 13:36 45.849232 -109.457444 258 10042ft 227kts
15-Mar-20 13:37 45.837425 -109.547504 258 10004ft 228kts
15-Mar-20 13:38 45.825416 -109.638553 258 9966ft 228kts
15-Mar-20 13:39 45.813586 -109.727743 258 9946ft 228kts
15-Mar-20 13:40 45.801529 -109.818015 258 9945ft 228kts
15-Mar-20 13:41 45.789485 -109.907639 258 9946ft 228kts
15-Mar-20 13:42 45.777267 -109.997957 258 9945ft 228kts
15-Mar-20 13:43 45.765009 -110.088028 258 9945ft 228kts
15-Mar-20 13:44 45.752922 -110.176094 259 9934ft 227kts
15-Mar-20 13:45 45.740644 -110.265357 259 9934ft 226kts
15-Mar-20 13:46 45.728369 -110.354001 259 10140ft 217kts
15-Mar-20 13:47 45.717010 -110.435696 258 10887ft 202kts
15-Mar-20 13:48 45.705584 -110.516959 257 10938ft 216kts
15-Mar-20 13:49 45.693347 -110.603765 257 10935ft 220kts
15-Mar-20 13:50 45.680944 -110.691253 257 10944ft 221kts
15-Mar-20 13:51 45.668415 -110.779106 256 10957ft 222kts
15-Mar-20 13:52 45.655993 -110.865701 256 10969ft 222kts
15-Mar-20 13:53 45.669015 -110.947400 302 10978ft 234kts
15-Mar-20 13:54 45.709048 -111.022640 303 10973ft 238kts
15-Mar-20 13:55 45.747877 -111.099987 284 10945ft 236kts
15-Mar-20 13:57 45.763934 -111.190344 281 10973ft 237kts
15-Mar-20 13:58 45.780199 -111.282521 281 10972ft 237kts
15-Mar-20 13:59 45.796521 -111.374865 281 10972ft 237kts
15-Mar-20 14:00 45.812598 -111.465504 282 10972ft 237kts
15-Mar-20 14:01 45.828979 -111.557644 282 10972ft 237kts
15-Mar-20 14:02 45.886376 -111.581052 12 9985ft 235kts
15-Mar-20 14:03 45.947919 -111.558273 12 8720ft 216kts
15-Mar-20 14:04 45.982461 -111.506501 101 7992ft 209kts
15-Mar-20 14:05 45.970092 -111.421166 111 7963ft 217kts
15-Mar-20 14:06 45.927399 -111.360095 136 7973ft 216kts
15-Mar-20 14:07 45.880881 -111.295433 137 6963ft 245kts
15-Mar-20 14:08 45.835844 -111.232886 136 5745ft 194kts
15-Mar-20 14:09 45.804549 -111.189544 137 5007ft 146kts
15-Mar-20 14:10 45.784106 -111.161103 135 4443ft 80kts
15-Mar-20 14:11 45.775510 -111.149250 166 4456ft 13kts
15-Mar-20 14:12 45.774727 -111.149888 225 4459ft 4kts
15-Mar-20 14:13 45.774975 -111.152384 315 4458ft 12kts
15-Mar-20 14:14 45.776741 -111.155746 247 4455ft 5kts
15-Mar-20 14:14 45.776524 -111.155961 46 4455ft 0kts
15-Mar-20 14:15 45.776524 -111.155962 46 4455ft 0kts
15-Mar-20 14:17 45.776524 -111.155962 46 4455ft 0kts
15-Mar-20 14:18 45.776524 -111.155962 46 4455ft 0kts

Navigation Log

Ident Type
Flight plan parsing failed, navigation log unavailable